TED weather

Thisted Airport
Thisted, North Jutland, Denmark

Public forecast

Using degrees Celsius for public forecast. Weather courtesy of forecast.io.

Closest aviation weather report (METAR) to Thisted Airport

Closest report is Aalborg Airport, 37.4 nm (69.2 km) E. Retrieved 2020/02/21 06:20 UTC (24 minutes ago):

EKYT 210620Z AUTO 26014KT 9999 FEW029/// 04/02 Q1004

Closest aviation forecast (TAF) to Thisted Airport

Closest forecast is Aalborg Airport, 37.4 nm (69.2 km) E. Retrieved 2020-02-21 03:26 UTC (3 hours ago):

TAF EKYT 210218Z 2103/2203 28014KT 9999 SCT020 TEMPO 2103/2106 27018G28KT 7000 -SHRASN SCT020CB TEMPO 2106/2115 25018G30KT BECMG 2115/2118 23022G34KT 7000 -RADZ BKN012 TEMPO 2118/2203 4000 RADZ BR BKN008